createdAt,value
2023-04-16T00:01:26.595Z,8.15
2023-04-16T00:03:54.279Z,7.50
2023-04-16T00:06:21.046Z,13.88
2023-04-16T00:08:47.520Z,13.32
2023-04-16T00:11:14.166Z,11.27
2023-04-16T00:13:40.818Z,13.07
2023-04-16T00:16:07.777Z,9.97
2023-04-16T00:18:34.337Z,12.00
2023-04-16T00:21:01.239Z,8.43
2023-04-16T00:23:27.813Z,9.57
2023-04-16T00:25:54.441Z,9.80
2023-04-16T00:28:21.180Z,11.07
2023-04-16T00:30:47.687Z,8.10
2023-04-16T00:33:14.178Z,9.90
2023-04-16T00:35:40.679Z,8.82
2023-04-16T00:38:07.404Z,8.55
2023-04-16T00:40:34.031Z,11.00
2023-04-16T00:43:00.591Z,9.95
2023-04-16T00:45:27.297Z,7.82
2023-04-16T00:47:54.022Z,8.48
2023-04-16T00:50:20.795Z,9.55
2023-04-16T00:52:48.858Z,10.73
2023-04-16T00:55:16.516Z,12.60
2023-04-16T00:57:43.506Z,12.05
2023-04-16T01:00:10.598Z,12.15
2023-04-16T01:02:38.110Z,11.98
2023-04-16T01:05:05.511Z,13.43
2023-04-16T01:07:32.074Z,11.65
2023-04-16T01:09:58.483Z,16.80
2023-04-16T01:12:25.126Z,11.60
2023-04-16T01:14:51.654Z,13.30
2023-04-16T01:17:18.119Z,12.03
2023-04-16T01:19:44.534Z,15.10
2023-04-16T01:22:11.024Z,15.73
2023-04-16T01:24:38.136Z,17.42
2023-04-16T01:27:04.628Z,13.77
2023-04-16T01:29:31.292Z,16.33
2023-04-16T01:31:57.758Z,17.85
2023-04-16T01:34:24.173Z,19.35
2023-04-16T01:36:50.752Z,18.10
2023-04-16T01:39:17.360Z,14.85
2023-04-16T01:41:43.802Z,16.80
2023-04-16T01:44:10.360Z,13.50
2023-04-16T01:46:38.166Z,18.25
2023-04-16T01:49:05.485Z,13.13
2023-04-16T01:51:31.928Z,17.15
2023-04-16T01:53:58.503Z,14.00
2023-04-16T01:56:25.513Z,15.70
2023-04-16T01:58:52.709Z,13.50
2023-04-16T02:01:19.379Z,18.92
2023-04-16T02:03:46.498Z,15.15
2023-04-16T02:06:13.187Z,15.47
2023-04-16T02:08:39.638Z,16.65
2023-04-16T02:11:06.092Z,15.90
2023-04-16T02:13:32.537Z,14.27
2023-04-16T02:15:59.038Z,15.10
2023-04-16T02:18:25.545Z,14.93
2023-04-16T02:20:51.982Z,14.13
2023-04-16T02:23:18.512Z,13.20
2023-04-16T02:25:46.634Z,14.73
2023-04-16T02:28:14.967Z,14.45
2023-04-16T02:30:42.061Z,15.53
2023-04-16T02:33:10.538Z,14.63
2023-04-16T02:35:38.385Z,15.15
2023-04-16T02:38:05.515Z,13.10
2023-04-16T02:40:32.361Z,15.63
2023-04-16T02:42:58.921Z,18.13
2023-04-16T02:45:25.430Z,16.77
2023-04-16T02:47:52.201Z,19.08
2023-04-16T02:50:18.789Z,15.75
2023-04-16T02:52:45.378Z,16.08
2023-04-16T02:55:12.021Z,18.97
2023-04-16T02:57:38.860Z,18.35
2023-04-16T03:00:06.037Z,16.17
2023-04-16T03:02:32.726Z,19.65
2023-04-16T03:04:59.212Z,18.13
2023-04-16T03:07:25.680Z,15.10
2023-04-16T03:09:52.437Z,18.63
2023-04-16T03:12:18.965Z,19.23
2023-04-16T03:14:45.386Z,17.20
2023-04-16T03:17:11.899Z,17.30
2023-04-16T03:19:38.568Z,24.60
2023-04-16T03:22:05.053Z,17.35
2023-04-16T03:24:31.527Z,20.27
2023-04-16T03:26:58.451Z,19.15
2023-04-16T03:29:25.480Z,21.10
2023-04-16T03:31:51.983Z,16.50
2023-04-16T03:34:18.526Z,13.75
2023-04-16T03:36:45.028Z,19.48
2023-04-16T03:39:11.603Z,18.23
2023-04-16T03:41:38.138Z,17.98
2023-04-16T03:44:04.545Z,20.07
2023-04-16T03:46:31.179Z,18.05
2023-04-16T03:48:57.697Z,16.83
2023-04-16T03:51:24.170Z,20.60
2023-04-16T03:53:50.658Z,19.77
2023-04-16T03:56:18.127Z,15.87
2023-04-16T03:58:44.691Z,17.77
2023-04-16T04:01:11.127Z,17.08
2023-04-16T04:03:37.851Z,16.65
2023-04-16T04:06:08.400Z,14.93
2023-04-16T04:08:34.894Z,15.83
2023-04-16T04:11:01.394Z,14.70
2023-04-16T04:13:27.989Z,15.98
2023-04-16T04:15:54.466Z,16.00
2023-04-16T04:18:20.998Z,16.45
2023-04-16T04:20:47.396Z,16.97
2023-04-16T04:23:14.156Z,19.05
2023-04-16T04:25:40.575Z,18.15
2023-04-16T04:28:07.155Z,15.35
2023-04-16T04:30:33.608Z,17.73
2023-04-16T04:33:00.093Z,16.67
2023-04-16T04:35:26.651Z,15.52
2023-04-16T04:37:53.090Z,18.10
2023-04-16T04:40:19.776Z,14.10
2023-04-16T04:42:46.200Z,18.05
2023-04-16T04:45:12.800Z,19.67
2023-04-16T04:47:39.356Z,17.40
2023-04-16T04:50:06.525Z,15.98
2023-04-16T04:52:33.064Z,18.45
2023-04-16T04:54:59.488Z,18.20
2023-04-16T04:57:25.933Z,16.13
2023-04-16T04:59:52.449Z,18.42
2023-04-16T05:02:19.372Z,16.23
2023-04-16T05:04:45.997Z,19.42
2023-04-16T05:07:12.476Z,19.75
2023-04-16T05:09:38.906Z,22.53
2023-04-16T05:12:05.584Z,19.90
2023-04-16T05:14:32.086Z,21.40
2023-04-16T05:16:58.557Z,20.02
2023-04-16T05:19:25.070Z,21.02
2023-04-16T05:21:51.585Z,24.23
2023-04-16T05:24:18.175Z,23.30
2023-04-16T05:26:44.625Z,25.45
2023-04-16T05:29:11.349Z,20.30
2023-04-16T05:31:38.367Z,19.50
2023-04-16T05:34:04.973Z,21.73
2023-04-16T05:36:31.409Z,22.02
2023-04-16T05:38:57.990Z,18.20
2023-04-16T05:41:24.678Z,19.70
2023-04-16T05:43:51.114Z,22.95
2023-04-16T05:46:17.632Z,21.03
2023-04-16T05:48:44.246Z,23.40
2023-04-16T05:51:10.712Z,21.80
2023-04-16T05:53:37.241Z,21.23
2023-04-16T05:56:03.854Z,25.10
2023-04-16T05:58:30.420Z,19.93
2023-04-16T06:00:56.998Z,21.65
2023-04-16T06:03:23.659Z,21.33
2023-04-16T06:05:50.237Z,18.95
2023-04-16T06:08:16.726Z,22.50
2023-04-16T06:10:43.414Z,15.43
2023-04-16T06:13:09.923Z,17.40
2023-04-16T06:15:36.416Z,18.88
2023-04-16T06:18:02.957Z,17.02
2023-04-16T06:20:29.764Z,23.27
2023-04-16T06:22:56.511Z,17.47
2023-04-16T06:25:23.385Z,20.50
2023-04-16T06:27:49.903Z,17.88
2023-04-16T06:30:16.798Z,19.80
2023-04-16T06:32:43.929Z,19.92
2023-04-16T06:35:10.433Z,18.03
2023-04-16T06:37:36.929Z,19.02
2023-04-16T06:40:04.008Z,17.92
2023-04-16T06:42:31.051Z,19.23
2023-04-16T06:44:57.621Z,19.48
2023-04-16T06:47:24.852Z,14.97
2023-04-16T06:49:51.584Z,20.65
2023-04-16T06:52:18.153Z,20.20
2023-04-16T06:54:44.698Z,19.23
2023-04-16T06:57:11.163Z,20.88
2023-04-16T06:59:37.898Z,19.10
2023-04-16T07:02:04.528Z,19.17
2023-04-16T07:04:31.092Z,16.65
2023-04-16T07:06:57.530Z,21.20
2023-04-16T07:09:24.067Z,19.25
2023-04-16T07:11:50.622Z,19.37
2023-04-16T07:14:17.235Z,19.00
2023-04-16T07:16:43.762Z,22.90
2023-04-16T07:19:10.396Z,20.75
2023-04-16T07:21:37.234Z,21.33
2023-04-16T07:24:03.963Z,22.87
2023-04-16T07:26:30.407Z,20.15
2023-04-16T07:28:56.845Z,17.52
2023-04-16T07:31:23.380Z,23.27
2023-04-16T07:33:49.817Z,20.23
2023-04-16T07:36:16.230Z,19.27
2023-04-16T07:38:42.784Z,27.58
2023-04-16T07:41:09.305Z,29.65
2023-04-16T07:43:35.994Z,19.70
2023-04-16T07:46:02.622Z,20.10
2023-04-16T07:48:29.218Z,18.03
2023-04-16T07:50:55.851Z,18.77
2023-04-16T07:53:22.405Z,19.30
2023-04-16T07:55:48.936Z,19.55
2023-04-16T07:58:15.491Z,19.70
2023-04-16T08:00:42.000Z,19.50
2023-04-16T08:03:08.599Z,17.90
2023-04-16T08:05:35.160Z,18.88
2023-04-16T08:08:01.705Z,17.45
2023-04-16T08:10:28.458Z,18.20
2023-04-16T08:12:54.908Z,20.60
2023-04-16T08:15:21.516Z,19.17
2023-04-16T08:17:48.085Z,18.98
2023-04-16T08:20:17.639Z,20.30
2023-04-16T08:22:46.500Z,19.05
2023-04-16T08:25:13.007Z,20.83
2023-04-16T08:27:39.663Z,21.20
2023-04-16T08:30:07.112Z,20.38
2023-04-16T08:32:33.784Z,20.10
2023-04-16T08:35:00.365Z,20.92
2023-04-16T08:37:26.891Z,17.57
2023-04-16T08:39:53.354Z,17.63
2023-04-16T08:42:31.876Z,22.10
2023-04-16T08:45:08.533Z,19.55
2023-04-16T08:47:36.140Z,23.50
2023-04-16T08:50:06.148Z,18.93
2023-04-16T08:52:34.899Z,17.60
2023-04-16T08:55:08.693Z,19.20
2023-04-16T08:57:58.742Z,20.83
2023-04-16T09:00:25.423Z,22.98
2023-04-16T09:02:53.463Z,22.73
2023-04-16T09:05:22.094Z,21.00
2023-04-16T09:07:48.687Z,21.17
2023-04-16T09:10:15.638Z,23.73
2023-04-16T09:12:42.590Z,23.35
2023-04-16T09:15:13.140Z,23.73
2023-04-16T09:17:40.260Z,24.50
2023-04-16T09:20:08.951Z,21.92
2023-04-16T09:22:36.372Z,23.58
2023-04-16T09:25:03.181Z,27.52
2023-04-16T09:27:30.933Z,22.13
2023-04-16T09:29:57.750Z,22.50
2023-04-16T09:32:28.808Z,23.92
2023-04-16T09:34:59.787Z,23.77
2023-04-16T09:37:28.422Z,20.02
2023-04-16T09:40:02.195Z,19.27
2023-04-16T09:42:31.217Z,20.20
2023-04-16T09:45:00.037Z,21.40
2023-04-16T09:47:45.260Z,21.67
2023-04-16T09:50:18.437Z,22.23
2023-04-16T09:52:49.298Z,20.73
2023-04-16T09:55:15.841Z,22.35
2023-04-16T09:57:42.612Z,23.00
2023-04-16T10:00:10.178Z,19.83
2023-04-16T10:02:40.518Z,26.48
2023-04-16T10:05:07.360Z,24.20
2023-04-16T10:07:35.309Z,23.85
2023-04-16T10:10:03.463Z,25.85
2023-04-16T10:12:30.590Z,28.63
2023-04-16T10:14:57.028Z,21.30
2023-04-16T10:17:24.640Z,26.33
2023-04-16T10:19:51.466Z,25.13
2023-04-16T10:22:17.978Z,22.60
2023-04-16T10:24:46.961Z,24.52
2023-04-16T10:27:13.854Z,24.50
2023-04-16T10:29:41.073Z,23.83
2023-04-16T10:32:08.344Z,21.88
2023-04-16T10:34:35.291Z,23.88
2023-04-16T10:37:01.840Z,23.55
2023-04-16T10:39:28.898Z,24.50
2023-04-16T10:42:12.728Z,26.83
2023-04-16T10:44:42.545Z,24.58
2023-04-16T10:47:12.459Z,20.92
2023-04-16T10:49:39.659Z,21.13
2023-04-16T10:52:14.344Z,24.58
2023-04-16T10:54:40.989Z,24.23
2023-04-16T10:57:10.053Z,20.92
2023-04-16T10:59:38.262Z,21.20
2023-04-16T11:02:13.829Z,24.00
2023-04-16T11:04:44.082Z,22.73
2023-04-16T11:07:13.867Z,22.83
2023-04-16T11:10:01.120Z,25.70
2023-04-16T11:12:27.756Z,25.25
2023-04-16T11:15:02.004Z,22.23
2023-04-16T11:17:31.757Z,25.42
2023-04-16T11:19:58.502Z,26.03
2023-04-16T11:22:25.771Z,25.85
2023-04-16T11:24:56.118Z,24.42
2023-04-16T11:27:25.583Z,24.02
2023-04-16T11:30:02.814Z,23.30
2023-04-16T11:32:32.586Z,25.47
2023-04-16T11:34:59.768Z,24.48
2023-04-16T11:37:38.135Z,26.50
2023-04-16T11:40:08.717Z,26.90
2023-04-16T11:42:36.655Z,27.15
2023-04-16T11:45:04.245Z,24.90
2023-04-16T11:47:31.778Z,24.02
2023-04-16T11:50:15.033Z,35.20
2023-04-16T11:52:41.558Z,25.60
2023-04-16T11:55:08.592Z,27.08
2023-04-16T11:57:35.334Z,22.87
2023-04-16T12:00:03.945Z,29.10
2023-04-16T12:02:39.148Z,26.52
2023-04-16T12:05:25.387Z,25.70
2023-04-16T12:07:51.879Z,21.83
2023-04-16T12:10:18.322Z,24.90
2023-04-16T12:12:44.960Z,28.52
2023-04-16T12:15:11.439Z,26.25
2023-04-16T12:17:38.539Z,25.92
2023-04-16T12:20:15.555Z,23.42
2023-04-16T12:22:47.525Z,23.90
2023-04-16T12:25:15.759Z,25.90
2023-04-16T12:27:46.341Z,30.55
2023-04-16T12:30:17.125Z,25.23
2023-04-16T12:32:45.316Z,27.65
2023-04-16T12:35:12.414Z,27.93
2023-04-16T12:37:39.783Z,27.95
2023-04-16T12:40:06.996Z,31.27
2023-04-16T12:42:34.227Z,31.27
2023-04-16T12:45:00.732Z,30.02
2023-04-16T12:47:27.289Z,27.90
2023-04-16T12:49:53.799Z,29.95
2023-04-16T12:52:23.228Z,25.85
2023-04-16T12:54:50.425Z,30.83
2023-04-16T12:57:16.882Z,26.40
2023-04-16T12:59:43.399Z,27.83
2023-04-16T13:02:09.909Z,22.88
2023-04-16T13:04:36.543Z,27.30
2023-04-16T13:07:03.104Z,28.45
2023-04-16T13:09:29.717Z,27.02
2023-04-16T13:11:56.171Z,27.63
2023-04-16T13:14:22.724Z,25.95
2023-04-16T13:16:49.135Z,24.33
2023-04-16T13:19:15.583Z,27.88
2023-04-16T13:21:42.143Z,30.33
2023-04-16T13:24:08.616Z,23.50
2023-04-16T13:26:35.180Z,24.50
2023-04-16T13:29:01.726Z,30.23
2023-04-16T13:31:28.290Z,24.08
2023-04-16T13:33:54.984Z,25.40
2023-04-16T13:36:21.496Z,27.30
2023-04-16T13:38:48.101Z,22.83
2023-04-16T13:41:14.532Z,24.95
2023-04-16T13:43:40.992Z,23.92
2023-04-16T13:46:07.674Z,22.70
2023-04-16T13:48:34.216Z,22.67
2023-04-16T13:51:00.796Z,23.45
2023-04-16T13:53:27.288Z,21.95
2023-04-16T13:55:53.860Z,24.38
2023-04-16T13:58:20.467Z,27.50
2023-04-16T14:00:46.974Z,23.60
2023-04-16T14:03:13.621Z,26.80
2023-04-16T14:05:40.157Z,21.63
2023-04-16T14:08:06.684Z,21.83
2023-04-16T14:10:33.316Z,23.35
2023-04-16T14:12:59.943Z,25.93
2023-04-16T14:15:26.469Z,26.38
2023-04-16T14:17:53.115Z,23.40
2023-04-16T14:20:19.956Z,20.65
2023-04-16T14:22:46.533Z,21.90
2023-04-16T14:25:13.141Z,21.23
2023-04-16T14:27:39.816Z,23.67
2023-04-16T14:30:07.136Z,20.42
2023-04-16T14:32:33.702Z,22.55
2023-04-16T14:35:00.222Z,24.23
2023-04-16T14:37:26.845Z,22.23
2023-04-16T14:39:53.397Z,21.67
2023-04-16T14:42:19.887Z,23.23
2023-04-16T14:44:46.375Z,22.73
2023-04-16T14:47:12.950Z,21.65
2023-04-16T14:49:39.558Z,21.07
2023-04-16T14:52:06.122Z,20.20
2023-04-16T14:54:33.179Z,24.02
2023-04-16T14:56:59.827Z,21.42
2023-04-16T14:59:26.310Z,19.02
2023-04-16T15:01:52.859Z,20.87
2023-04-16T15:04:19.551Z,23.13
2023-04-16T15:06:46.687Z,20.83
2023-04-16T15:09:13.367Z,23.27
2023-04-16T15:11:40.010Z,19.35
2023-04-16T15:14:06.536Z,23.93
2023-04-16T15:16:33.145Z,20.08
2023-04-16T15:18:59.687Z,21.80
2023-04-16T15:21:26.641Z,20.60
2023-04-16T15:23:53.360Z,20.65
2023-04-16T15:26:19.869Z,23.97
2023-04-16T15:28:46.441Z,21.65
2023-04-16T15:31:13.094Z,23.20
2023-04-16T15:33:39.685Z,22.40
2023-04-16T15:36:06.421Z,21.85
2023-04-16T15:38:32.920Z,20.43
2023-04-16T15:40:59.351Z,22.20
2023-04-16T15:43:28.883Z,21.60
2023-04-16T15:45:56.082Z,20.73
2023-04-16T15:48:22.985Z,25.25
2023-04-16T15:50:49.917Z,25.47
2023-04-16T15:53:16.526Z,25.08
2023-04-16T15:55:43.152Z,29.75
2023-04-16T15:58:09.707Z,33.80
2023-04-16T16:00:36.212Z,30.67
2023-04-16T16:03:02.949Z,28.50
2023-04-16T16:05:29.490Z,34.50
2023-04-16T16:07:57.563Z,27.15
2023-04-16T16:10:24.142Z,28.60
2023-04-16T16:12:50.607Z,28.48
2023-04-16T16:15:17.226Z,26.93
2023-04-16T16:17:43.810Z,28.13
2023-04-16T16:20:10.300Z,27.08
2023-04-16T16:22:37.219Z,27.65
2023-04-16T16:25:04.608Z,31.77
2023-04-16T16:27:31.191Z,27.10
2023-04-16T16:29:57.749Z,28.45
2023-04-16T16:32:24.291Z,27.10
2023-04-16T16:34:50.853Z,27.73
2023-04-16T16:37:17.352Z,26.58
2023-04-16T16:39:43.962Z,23.60
2023-04-16T16:42:10.604Z,28.83
2023-04-16T16:44:37.147Z,24.88
2023-04-16T16:47:03.945Z,27.98
2023-04-16T16:49:30.529Z,29.33
2023-04-16T16:51:56.983Z,27.93
2023-04-16T16:54:23.445Z,25.73
2023-04-16T16:56:49.945Z,31.20
2023-04-16T16:59:16.430Z,27.48
2023-04-16T17:01:42.881Z,29.50
2023-04-16T17:04:09.614Z,29.90
2023-04-16T17:06:36.366Z,25.77
2023-04-16T17:09:02.982Z,25.17
2023-04-16T17:11:29.532Z,26.92
2023-04-16T17:13:56.074Z,28.67
2023-04-16T17:16:22.686Z,26.03
2023-04-16T17:18:49.559Z,22.65
2023-04-16T17:21:16.882Z,23.67
2023-04-16T17:23:43.527Z,31.38
2023-04-16T17:26:10.154Z,26.75
2023-04-16T17:28:36.594Z,28.43
2023-04-16T17:31:03.048Z,29.40
2023-04-16T17:33:29.696Z,28.70
2023-04-16T17:35:56.293Z,29.25
2023-04-16T17:38:22.743Z,28.88
2023-04-16T17:40:49.170Z,33.63
2023-04-16T17:43:15.586Z,33.55
2023-04-16T17:45:42.131Z,33.60
2023-04-16T17:48:08.664Z,33.10
2023-04-16T17:50:36.954Z,33.08
2023-04-16T17:53:04.749Z,32.33
2023-04-16T17:55:31.427Z,31.92
2023-04-16T17:57:58.059Z,31.92
2023-04-16T18:00:24.557Z,32.70
2023-04-16T18:02:51.198Z,33.00
2023-04-16T18:05:17.812Z,28.13
2023-04-16T18:07:44.294Z,29.08
2023-04-16T18:10:10.835Z,29.27
2023-04-16T18:12:37.278Z,35.20
2023-04-16T18:15:04.266Z,31.55
2023-04-16T18:17:30.704Z,29.47
2023-04-16T18:19:57.369Z,31.25
2023-04-16T18:22:25.718Z,30.17
2023-04-16T18:24:53.906Z,29.27
2023-04-16T18:27:20.302Z,29.33
2023-04-16T18:29:46.741Z,29.27
2023-04-16T18:32:13.239Z,27.60
2023-04-16T18:34:39.895Z,28.92
2023-04-16T18:37:06.520Z,31.55
2023-04-16T18:39:33.516Z,30.10
2023-04-16T18:42:00.064Z,25.67
2023-04-16T18:44:26.606Z,26.85
2023-04-16T18:46:53.104Z,30.75
2023-04-16T18:49:19.558Z,37.35
2023-04-16T18:51:46.033Z,31.80
2023-04-16T18:54:12.552Z,27.53
2023-04-16T18:56:39.120Z,33.35
2023-04-16T18:59:05.902Z,27.85
2023-04-16T19:01:32.412Z,30.30
2023-04-16T19:03:59.086Z,32.75
2023-04-16T19:06:25.569Z,32.10
2023-04-16T19:08:52.004Z,33.08
2023-04-16T19:11:18.545Z,33.83
2023-04-16T19:13:45.096Z,34.33
2023-04-16T19:16:11.928Z,35.33
2023-04-16T19:18:38.844Z,33.63
2023-04-16T19:21:05.393Z,30.48
2023-04-16T19:23:31.912Z,33.33
2023-04-16T19:25:58.439Z,33.20
2023-04-16T19:28:25.638Z,34.30
2023-04-16T19:30:53.026Z,34.40
2023-04-16T19:33:19.775Z,34.45
2023-04-16T19:35:47.070Z,36.75
2023-04-16T19:38:13.635Z,38.10
2023-04-16T19:40:40.175Z,33.25
2023-04-16T19:43:06.747Z,40.63
2023-04-16T19:45:33.205Z,40.55
2023-04-16T19:47:59.707Z,40.55
2023-04-16T19:50:26.205Z,37.65
2023-04-16T19:52:52.659Z,35.83
2023-04-16T19:55:19.185Z,35.93
2023-04-16T19:57:47.818Z,38.75
2023-04-16T20:00:15.009Z,40.50
2023-04-16T20:02:41.635Z,36.83
2023-04-16T20:05:08.758Z,40.00
2023-04-16T20:07:35.467Z,38.77
2023-04-16T20:10:02.073Z,40.50
2023-04-16T20:12:28.547Z,39.92
2023-04-16T20:14:55.016Z,40.15
2023-04-16T20:17:21.525Z,38.58
2023-04-16T20:19:48.063Z,38.70
2023-04-16T20:22:14.481Z,42.63
2023-04-16T20:24:41.192Z,43.30
2023-04-16T20:27:08.767Z,45.08
2023-04-16T20:29:35.333Z,40.45
2023-04-16T20:32:01.721Z,41.17
2023-04-16T20:34:28.128Z,42.20
2023-04-16T20:36:54.603Z,40.72
2023-04-16T20:39:21.026Z,37.85
2023-04-16T20:41:47.898Z,40.63
2023-04-16T20:44:14.410Z,44.17
2023-04-16T20:46:40.983Z,43.20
2023-04-16T20:49:07.463Z,40.38
2023-04-16T20:51:33.957Z,41.70
2023-04-16T20:54:00.472Z,43.17
2023-04-16T20:56:26.999Z,45.03
2023-04-16T20:58:53.687Z,45.92
2023-04-16T21:01:20.261Z,43.25
2023-04-16T21:03:46.984Z,46.50
2023-04-16T21:06:13.559Z,44.65
2023-04-16T21:08:39.974Z,41.97
2023-04-16T21:11:06.522Z,49.08
2023-04-16T21:13:32.987Z,44.47
2023-04-16T21:15:59.595Z,43.42
2023-04-16T21:18:26.195Z,47.97
2023-04-16T21:20:52.734Z,46.87
2023-04-16T21:23:19.274Z,49.67
2023-04-16T21:25:45.797Z,46.75
2023-04-16T21:28:12.422Z,50.60
2023-04-16T21:30:39.340Z,50.28
2023-04-16T21:33:06.572Z,51.23
2023-04-16T21:35:33.256Z,54.55
2023-04-16T21:37:59.736Z,54.10
2023-04-16T21:40:26.412Z,48.33
2023-04-16T21:42:52.982Z,48.97
2023-04-16T21:45:19.673Z,51.40
2023-04-16T21:47:46.189Z,49.38
2023-04-16T21:50:12.924Z,51.00
2023-04-16T21:52:39.486Z,54.00
2023-04-16T21:55:08.148Z,49.10
2023-04-16T21:57:34.583Z,47.77
2023-04-16T22:00:01.037Z,48.47
2023-04-16T22:04:53.963Z,45.00
2023-04-16T22:07:20.477Z,46.08
2023-04-16T22:09:46.950Z,49.23
2023-04-16T22:12:13.394Z,45.55
2023-04-16T22:14:44.258Z,48.42
2023-04-16T22:17:15.790Z,46.30
2023-04-16T22:19:42.797Z,45.35
2023-04-16T22:22:09.212Z,50.57
2023-04-16T22:24:36.112Z,47.15
2023-04-16T22:27:02.580Z,49.92
2023-04-16T22:29:29.227Z,45.30
2023-04-16T22:31:55.775Z,48.80
2023-04-16T22:34:22.282Z,48.50
2023-04-16T22:36:48.754Z,48.22
2023-04-16T22:39:15.204Z,50.80
2023-04-16T22:41:41.592Z,48.92
2023-04-16T22:44:08.090Z,48.00
2023-04-16T22:46:34.777Z,48.40
2023-04-16T22:49:01.434Z,49.88
2023-04-16T22:51:28.004Z,47.22
2023-04-16T22:53:54.665Z,46.97
2023-04-16T22:56:21.142Z,53.78
2023-04-16T22:58:47.679Z,52.27
2023-04-16T23:01:14.199Z,50.13
2023-04-16T23:03:40.765Z,56.38
2023-04-16T23:06:07.287Z,58.58
2023-04-16T23:08:33.696Z,60.80
2023-04-16T23:11:00.188Z,59.47
2023-04-16T23:13:26.718Z,62.53
2023-04-16T23:15:53.196Z,62.63
2023-04-16T23:18:19.676Z,69.50
2023-04-16T23:20:46.121Z,69.88
2023-04-16T23:23:12.614Z,66.60
2023-04-16T23:25:41.519Z,72.57
2023-04-16T23:28:08.014Z,66.88
2023-04-16T23:30:34.493Z,70.60
2023-04-16T23:33:00.995Z,67.18
2023-04-16T23:35:27.425Z,67.97
2023-04-16T23:37:53.864Z,69.65
2023-04-16T23:40:20.522Z,66.97
2023-04-16T23:42:47.071Z,58.45
2023-04-16T23:45:13.591Z,59.80
2023-04-16T23:47:40.123Z,58.93
2023-04-16T23:50:07.149Z,58.33
2023-04-16T23:52:33.586Z,52.00
2023-04-16T23:54:59.961Z,54.00
2023-04-16T23:57:26.433Z,56.97
2023-04-16T23:59:52.895Z,57.50
